Cross, South Carolina
Current Conditions -  °F | °C
As of 1:15 PM on Monday 24 Nov 2014 (Local Time) from KMKS Reporting Station
Haze Haze  
Wind Chill: 75°   Ceiling: 1300
Heat Index: 75°   Visibility: 5mi
Dew Point: 73°   Wind: 10mph
Humidity: 94%   Direction: 220°SW
Pressure: 29.83"   Gusts: 17mph
Location:  33.32°N, 80.16°W
Report Text: KMKS 241815Z AUTO 22009G15KT 5SM BR BKN013 BKN019 24/23 A2983 RMK AO2
Loading
Personal Weather Stations






























Interactive Weather Map New forecast layout! Learn more

10-Day Weather Forecast

Advertisements
Track Severe Weather on mobile